Time;durP1;ratioP1;P1;durP2;ratioP2;P2;SDS_P1;SDS_P2;PMS_P1;PMS_P2;Temp;Humidity;BMP_temperature;BMP_pressure;BME280_temperature;BME280_humidity;BME280_pressure;Samples;Min_cycle;Max_cycle;Signal;HPM_P1;HPM_P2
2021/12/16 00:07:58;;;;;;;3.05;1.48;;;;;;;5.42;100.00;101607.00;4938265;29;20071;-49
2021/12/16 00:11:15;;;;;;;5.07;2.35;;;;;;;5.46;100.00;101607.81;4936475;29;20114;-49
2021/12/16 00:34:27;;;;;;;5.43;1.40;;;;;;;5.10;100.00;101624.44;4935389;29;20102;-49
2021/12/16 00:37:31;;;;;;;2.00;1.10;;;;;;;5.09;100.00;101622.06;4939436;29;20082;-49
2021/12/16 00:40:39;;;;;;;7.97;1.38;;;;;;;5.17;100.00;101613.38;4924069;29;20183;-48
2021/12/16 00:44:04;;;;;;;3.63;1.77;;;;;;;5.15;100.00;101621.28;4935939;29;20111;-49
2021/12/16 01:50:05;;;;;;;3.65;1.30;;;;;;;4.67;100.00;101642.16;4890238;23;20515;-49
2021/12/16 01:56:28;;;;;;;2.00;1.90;;;;;;;4.76;100.00;101637.03;4945371;28;20046;-48
2021/12/16 01:59:36;;;;;;;3.55;1.92;;;;;;;4.73;100.00;101637.00;4936663;28;20387;-48
2021/12/16 02:02:51;;;;;;;2.72;1.50;;;;;;;4.69;100.00;101636.22;4938344;29;20054;-48
2021/12/16 02:06:44;;;;;;;1.90;1.33;;;;;;;4.63;100.00;101643.31;4944745;29;20059;-48
2021/12/16 02:09:39;;;;;;;1.20;1.10;;;;;;;4.58;100.00;101639.75;4933599;29;20050;-48
2021/12/16 02:30:25;;;;;;;;;;;;;;;4.52;100.00;101644.09;4935196;28;20058;-48
2021/12/16 02:36:14;;;;;;;7.35;1.48;;;;;;;4.58;100.00;101653.56;4942941;28;20452;-48
2021/12/16 02:39:29;;;;;;;0.88;0.88;;;;;;;4.55;100.00;101654.31;4943531;29;20400;-48
2021/12/16 02:42:40;;;;;;;4.15;1.80;;;;;;;4.52;100.00;101655.13;4934048;29;20111;-48
2021/12/16 03:49:06;;;;;;;8.32;2.60;;;;;;;4.14;100.00;101672.31;4951824;23;20383;-49
2021/12/16 03:52:15;;;;;;;4.30;2.30;;;;;;;4.11;100.00;101673.09;4947039;28;20140;-49
2021/12/16 03:55:19;;;;;;;9.63;3.55;;;;;;;4.06;100.00;101676.22;4931873;29;20087;-48
2021/12/16 03:58:22;;;;;;;3.42;2.80;;;;;;;4.01;100.00;101679.34;4932561;29;20406;-48
2021/12/16 04:01:29;;;;;;;13.15;3.03;;;;;;;3.90;100.00;101677.72;4938374;29;20090;-48
2021/12/16 04:04:33;;;;;;;15.57;2.00;;;;;;;3.90;100.00;101675.75;4933031;29;20423;-48
2021/12/16 04:07:39;;;;;;;2.53;2.38;;;;;;;3.88;100.00;101680.84;4934790;29;20067;-49
2021/12/16 04:11:02;;;;;;;9.48;2.45;;;;;;;3.97;100.00;101684.06;4931680;29;20143;-49
2021/12/16 04:14:07;;;;;;;10.48;2.45;;;;;;;4.03;100.00;101690.78;4933229;29;20099;-49
2021/12/16 04:17:12;;;;;;;3.35;1.23;;;;;;;4.16;100.00;101686.50;4934331;28;20469;-49
2021/12/16 04:20:16;;;;;;;4.05;1.60;;;;;;;4.26;100.00;101690.50;4933857;29;20106;-49
2021/12/16 04:23:20;;;;;;;16.38;2.63;;;;;;;4.26;100.00;101691.28;4935755;29;20067;-49
2021/12/16 04:26:27;;;;;;;3.33;2.22;;;;;;;4.24;100.00;101693.66;4937997;29;20094;-49
2021/12/16 04:29:30;;;;;;;7.18;2.60;;;;;;;4.31;100.00;101693.66;4937514;28;20465;-48
2021/12/16 04:32:34;;;;;;;12.93;2.50;;;;;;;4.30;100.00;101694.06;4935261;29;20069;-48
2021/12/16 04:35:37;;;;;;;15.32;2.88;;;;;;;4.30;100.00;101703.13;4923756;29;20142;-48
2021/12/16 04:38:42;;;;;;;16.42;3.15;;;;;;;4.29;100.00;101700.72;4934760;29;20070;-48
2021/12/16 04:41:45;;;;;;;14.90;3.08;;;;;;;4.26;100.00;101696.81;4935976;29;20120;-48
2021/12/16 04:44:49;;;;;;;8.55;2.25;;;;;;;4.22;100.00;101698.72;4939421;29;20047;-49
2021/12/16 04:47:51;;;;;;;15.73;3.17;;;;;;;4.19;100.00;101696.78;4942126;29;20090;-48
2021/12/16 05:51:04;;;;;;;15.88;2.35;;;;;;;4.33;100.00;101746.44;4931249;23;20122;-47
2021/12/16 05:54:08;;;;;;;4.43;2.15;;;;;;;4.43;100.00;101745.72;4936951;28;20062;-47
2021/12/16 05:57:12;;;;;;;5.68;2.53;;;;;;;4.43;100.00;101754.00;4948752;28;20090;-47
2021/12/16 06:00:19;;;;;;;17.05;2.60;;;;;;;4.44;100.00;101766.59;4937019;28;20039;-48
2021/12/16 06:03:23;;;;;;;4.43;2.55;;;;;;;4.40;100.00;101763.03;4933795;28;20443;-48
2021/12/16 06:06:27;;;;;;;3.55;1.88;;;;;;;4.45;100.00;101759.91;4947984;28;20047;-48
2021/12/16 06:09:30;;;;;;;8.48;3.08;;;;;;;4.47;100.00;101765.84;4933733;28;20058;-50
2021/12/16 06:12:33;;;;;;;2.25;1.45;;;;;;;4.52;100.00;101782.03;4946648;28;20074;-48
2021/12/16 06:16:01;;;;;;;5.45;2.33;;;;;;;4.53;100.00;101780.84;4947607;28;20106;-47
2021/12/16 06:29:08;;;;;;;3.17;1.75;;;;;;;4.56;100.00;101793.88;4944880;28;20418;-48
2021/12/16 06:32:12;;;;;;;3.22;1.75;;;;;;;4.52;100.00;101787.56;4927610;28;20112;-48
2021/12/16 06:35:15;;;;;;;2.78;2.30;;;;;;;4.53;100.00;101794.63;4946895;28;20054;-49
2021/12/16 06:38:20;;;;;;;11.40;3.47;;;;;;;4.60;100.00;101799.38;4937418;28;20526;-48
2021/12/16 06:41:22;;;;;;;5.05;1.58;;;;;;;4.65;100.00;101801.00;4952461;28;20062;-48
2021/12/16 06:44:35;;;;;;;17.38;2.42;;;;;;;4.74;100.00;101807.75;4940064;28;20054;-48
2021/12/16 06:47:47;;;;;;;4.38;2.28;;;;;;;4.78;100.00;101810.50;4946861;28;20046;-48
